Time;durP1;ratioP1;P1;durP2;ratioP2;P2;SDS_P1;SDS_P2;PMS_P1;PMS_P2;Temp;Humidity;BMP_temperature;BMP_pressure;BME280_temperature;BME280_humidity;BME280_pressure;Samples;Min_cycle;Max_cycle;Signal;HPM_P1;HPM_P2
2021/01/09 00:02:15;;;;;;;17.20;8.17;;;1.90;90.40;;;;;;5054079;28;20036;-76
2021/01/09 00:04:41;;;;;;;20.27;8.77;;;1.90;90.30;;;;;;5053519;28;20029;-76
2021/01/09 00:07:10;;;;;;;20.70;9.20;;;1.80;90.30;;;;;;5055228;28;20035;-76
2021/01/09 00:09:39;;;;;;;21.27;9.07;;;1.80;90.40;;;;;;5054276;28;20025;-76
2021/01/09 00:12:10;;;;;;;21.10;8.80;;;1.90;90.40;;;;;;5053868;28;20033;-76
2021/01/09 00:14:36;;;;;;;18.30;8.93;;;1.90;90.40;;;;;;5054292;28;20112;-76
2021/01/09 00:17:01;;;;;;;19.77;9.10;;;1.90;90.40;;;;;;5053593;28;20060;-76
2021/01/09 00:19:27;;;;;;;23.00;9.67;;;1.90;90.30;;;;;;5052992;28;20025;-76
2021/01/09 00:21:52;;;;;;;20.30;8.93;;;2.00;90.30;;;;;;5053744;28;20078;-76
2021/01/09 00:24:19;;;;;;;21.37;9.13;;;1.90;90.30;;;;;;5053450;28;20033;-75
2021/01/09 00:26:44;;;;;;;18.53;9.00;;;1.90;90.30;;;;;;5053236;28;20053;-76
2021/01/09 00:29:10;;;;;;;19.37;9.13;;;1.90;90.30;;;;;;5053620;28;20072;-76
2021/01/09 00:31:36;;;;;;;21.10;8.87;;;1.90;90.30;;;;;;5054131;28;20416;-76
2021/01/09 00:34:01;;;;;;;15.87;7.90;;;1.90;90.40;;;;;;5053202;28;20102;-76
2021/01/09 00:36:27;;;;;;;22.40;9.00;;;2.00;90.30;;;;;;5052696;28;20021;-77
2021/01/09 00:38:53;;;;;;;17.23;8.33;;;1.90;90.10;;;;;;5053511;28;20170;-76
2021/01/09 00:41:26;;;;;;;17.30;7.70;;;1.90;90.30;;;;;;5054502;28;20075;-75
2021/01/09 00:43:52;;;;;;;20.97;8.37;;;1.90;90.30;;;;;;5053171;28;20056;-76
2021/01/09 00:46:18;;;;;;;21.07;8.77;;;1.90;90.30;;;;;;5052393;28;20057;-75
2021/01/09 00:48:43;;;;;;;18.53;8.23;;;1.90;90.40;;;;;;5051809;28;20479;-76
2021/01/09 00:51:16;;;;;;;20.13;8.17;;;1.90;90.30;;;;;;5052430;28;20040;-77
2021/01/09 00:53:42;;;;;;;19.67;9.00;;;1.80;90.40;;;;;;5052279;28;20025;-76
2021/01/09 00:56:08;;;;;;;19.90;8.67;;;1.80;90.40;;;;;;5052962;28;20028;-76
2021/01/09 00:58:34;;;;;;;20.97;8.97;;;1.80;90.40;;;;;;5051512;28;20047;-76
2021/01/09 01:01:00;;;;;;;20.40;8.70;;;1.90;90.40;;;;;;5053786;28;20081;-75
2021/01/09 01:03:27;;;;;;;19.60;9.13;;;1.80;90.40;;;;;;5052578;28;20056;-77
2021/01/09 01:05:53;;;;;;;22.90;8.67;;;1.90;90.40;;;;;;5053407;28;20029;-78
2021/01/09 01:08:18;;;;;;;19.80;8.60;;;1.90;90.30;;;;;;5054177;28;20033;-78
2021/01/09 01:10:44;;;;;;;18.07;8.77;;;1.90;90.40;;;;;;5052299;28;20029;-79
2021/01/09 01:13:09;;;;;;;18.27;7.63;;;1.90;90.40;;;;;;5053082;28;20033;-78
2021/01/09 01:15:35;;;;;;;20.33;8.17;;;1.90;90.20;;;;;;5052044;28;20458;-79
2021/01/09 01:18:01;;;;;;;19.13;8.53;;;1.90;90.20;;;;;;5053486;28;20468;-79
2021/01/09 01:20:27;;;;;;;19.17;8.37;;;1.90;90.20;;;;;;5053335;28;20029;-79
2021/01/09 01:22:52;;;;;;;18.03;7.90;;;1.90;90.20;;;;;;5052009;28;20029;-78
2021/01/09 01:25:18;;;;;;;18.93;8.23;;;1.90;90.10;;;;;;5051789;28;20393;-78
2021/01/09 01:27:44;;;;;;;19.03;8.40;;;1.90;90.20;;;;;;5051765;28;20025;-79
2021/01/09 01:30:10;;;;;;;20.57;8.80;;;1.90;90.20;;;;;;5052702;28;20075;-79
2021/01/09 01:32:35;;;;;;;18.90;9.07;;;1.90;90.10;;;;;;5051579;28;20047;-79
2021/01/09 01:35:02;;;;;;;21.53;9.07;;;1.90;90.10;;;;;;5052535;28;20029;-78
2021/01/09 01:37:28;;;;;;;22.27;8.87;;;1.90;90.20;;;;;;5052680;28;20035;-79
2021/01/09 01:39:53;;;;;;;21.63;9.13;;;1.90;90.00;;;;;;5052679;28;20025;-79
2021/01/09 01:42:19;;;;;;;21.20;8.27;;;1.90;90.10;;;;;;5052199;28;20096;-79
2021/01/09 01:44:45;;;;;;;20.17;8.87;;;1.90;90.20;;;;;;5051542;28;20501;-79
2021/01/09 01:47:16;;;;;;;21.97;8.90;;;1.90;90.20;;;;;;5052041;28;20470;-79
2021/01/09 01:49:41;;;;;;;19.93;8.67;;;1.90;90.20;;;;;;5051562;28;20036;-79
2021/01/09 01:52:07;;;;;;;22.60;8.43;;;1.90;90.20;;;;;;5051714;28;20033;-78
2021/01/09 01:54:33;;;;;;;28.33;9.47;;;1.90;90.20;;;;;;5051729;28;20032;-78
2021/01/09 01:57:01;;;;;;;19.70;8.93;;;1.90;90.20;;;;;;5051865;28;20417;-79
2021/01/09 01:59:27;;;;;;;20.83;9.20;;;1.90;90.10;;;;;;5052919;28;20025;-79
2021/01/09 02:01:53;;;;;;;20.83;9.20;;;1.90;90.10;;;;;;5052430;28;20029;-79
2021/01/09 02:04:19;;;;;;;21.33;8.67;;;2.00;90.10;;;;;;5051763;28;20025;-78
2021/01/09 02:06:47;;;;;;;18.07;8.27;;;2.00;90.20;;;;;;5052511;28;20087;-79
2021/01/09 02:09:20;;;;;;;21.00;9.33;;;2.00;90.10;;;;;;5051705;28;20029;-78
2021/01/09 02:11:56;;;;;;;22.00;9.80;;;2.00;90.20;;;;;;5051093;28;20037;-78
2021/01/09 02:14:42;;;;;;;22.07;9.33;;;2.00;90.30;;;;;;5051626;28;20025;-79
2021/01/09 02:17:09;;;;;;;26.17;9.67;;;2.00;90.20;;;;;;5051558;28;20032;-78
2021/01/09 02:19:39;;;;;;;19.47;8.80;;;2.00;90.20;;;;;;5050721;28;20021;-80
2021/01/09 02:22:08;;;;;;;22.83;9.10;;;2.00;90.20;;;;;;5051930;28;20043;-79
2021/01/09 02:24:33;;;;;;;23.13;8.73;;;2.00;90.20;;;;;;5051042;28;20021;-80
2021/01/09 02:26:59;;;;;;;21.27;9.23;;;2.00;90.10;;;;;;5053099;28;20029;-79
2021/01/09 02:29:29;;;;;;;21.60;8.67;;;2.00;90.20;;;;;;5052736;28;20029;-78
2021/01/09 02:32:00;;;;;;;22.43;9.03;;;2.00;90.20;;;;;;5050759;28;20037;-79
2021/01/09 02:34:51;;;;;;;17.83;8.40;;;2.00;90.10;;;;;;5051552;28;20447;-78
2021/01/09 02:37:17;;;;;;;17.80;8.73;;;2.00;90.00;;;;;;5051836;28;20429;-78
2021/01/09 02:39:43;;;;;;;20.87;8.33;;;2.00;90.00;;;;;;5051037;28;20029;-76
2021/01/09 02:42:10;;;;;;;18.60;8.50;;;2.00;90.00;;;;;;5052475;28;20040;-75
2021/01/09 02:44:37;;;;;;;19.63;9.17;;;2.10;89.90;;;;;;5051182;28;20036;-79
2021/01/09 02:47:05;;;;;;;22.03;9.97;;;2.10;90.00;;;;;;5051497;28;20462;-78
2021/01/09 02:49:30;;;;;;;17.90;9.30;;;2.10;89.90;;;;;;5051016;28;20478;-78
2021/01/09 02:51:56;;;;;;;20.37;9.33;;;2.10;89.60;;;;;;5050299;28;20037;-78
2021/01/09 02:54:22;;;;;;;22.43;9.40;;;2.20;89.40;;;;;;5051152;28;20033;-78
2021/01/09 02:56:47;;;;;;;18.93;8.37;;;2.20;89.50;;;;;;5051773;28;20029;-78
2021/01/09 02:59:13;;;;;;;22.97;9.60;;;2.20;89.50;;;;;;5051706;28;20370;-78
2021/01/09 03:01:39;;;;;;;19.17;9.13;;;2.20;89.50;;;;;;5050705;28;20029;-76
2021/01/09 03:04:04;;;;;;;20.30;9.07;;;2.10;89.40;;;;;;5051306;28;20120;-78
2021/01/09 03:06:30;;;;;;;19.17;8.37;;;2.10;89.70;;;;;;5051390;28;20381;-78
2021/01/09 03:08:55;;;;;;;19.57;8.87;;;2.10;90.00;;;;;;5052108;28;20017;-78
2021/01/09 03:11:22;;;;;;;21.53;9.37;;;2.10;89.90;;;;;;5055068;28;20037;-78
2021/01/09 03:13:48;;;;;;;22.60;9.57;;;2.10;90.00;;;;;;5055973;28;20025;-78
2021/01/09 03:16:14;;;;;;;22.70;9.53;;;2.10;90.10;;;;;;5055068;28;20378;-78
2021/01/09 03:18:39;;;;;;;21.53;9.87;;;2.10;90.00;;;;;;5054783;28;20079;-78
2021/01/09 03:21:05;;;;;;;19.40;9.40;;;2.10;90.00;;;;;;5056035;28;20039;-78
2021/01/09 03:23:31;;;;;;;23.27;9.20;;;2.10;90.00;;;;;;5054967;28;20515;-78
2021/01/09 03:25:56;;;;;;;23.30;9.83;;;2.10;90.00;;;;;;5053843;28;20021;-78
2021/01/09 03:28:22;;;;;;;21.40;9.37;;;2.10;90.00;;;;;;5055912;28;20021;-78
2021/01/09 03:30:48;;;;;;;22.07;9.50;;;2.10;90.00;;;;;;5054370;28;20033;-78
2021/01/09 03:33:15;;;;;;;24.43;10.10;;;2.10;90.10;;;;;;5054585;28;20049;-78
2021/01/09 03:35:40;;;;;;;22.47;10.33;;;2.10;90.10;;;;;;5054132;28;20424;-79
2021/01/09 03:38:06;;;;;;;20.80;9.13;;;2.10;90.20;;;;;;5054812;28;20033;-78
2021/01/09 03:40:32;;;;;;;21.17;9.73;;;2.10;90.00;;;;;;5054825;28;20033;-76
2021/01/09 03:42:57;;;;;;;24.03;10.17;;;2.20;89.80;;;;;;5055293;28;20183;-75
2021/01/09 03:45:23;;;;;;;21.27;9.83;;;2.10;89.80;;;;;;5054834;28;20359;-78
2021/01/09 03:47:49;;;;;;;21.33;9.07;;;2.10;89.40;;;;;;5054186;28;20021;-79
2021/01/09 03:50:15;;;;;;;21.70;9.70;;;2.10;89.00;;;;;;5055544;28;20024;-79
2021/01/09 03:52:41;;;;;;;22.10;9.53;;;2.10;88.70;;;;;;5055128;28;20033;-78
2021/01/09 03:55:07;;;;;;;20.03;9.27;;;2.10;88.40;;;;;;5054533;28;20082;-75
2021/01/09 03:57:33;;;;;;;19.10;9.40;;;2.10;88.50;;;;;;5053687;28;20033;-75
2021/01/09 03:59:58;;;;;;;20.13;8.23;;;2.10;88.30;;;;;;5053996;28;20028;-76
2021/01/09 04:02:24;;;;;;;19.60;9.20;;;2.10;88.50;;;;;;5054299;28;20036;-75
2021/01/09 04:04:50;;;;;;;22.03;9.33;;;2.00;88.60;;;;;;5053875;28;20036;-76
2021/01/09 04:07:15;;;;;;;20.93;9.17;;;2.00;88.60;;;;;;5053750;28;20055;-75
2021/01/09 04:09:41;;;;;;;16.80;8.73;;;2.00;88.80;;;;;;5053706;28;20072;-76
2021/01/09 04:12:07;;;;;;;20.77;9.37;;;2.00;88.80;;;;;;5053951;28;20032;-77
2021/01/09 04:14:33;;;;;;;18.47;9.03;;;2.00;88.70;;;;;;5054034;28;20029;-76
2021/01/09 04:16:58;;;;;;;22.47;9.63;;;1.90;88.50;;;;;;5053440;28;20522;-76
2021/01/09 04:19:24;;;;;;;20.17;9.53;;;1.90;88.60;;;;;;5054068;28;20025;-76
2021/01/09 04:21:51;;;;;;;20.03;9.00;;;2.00;88.40;;;;;;5053147;28;20033;-76
2021/01/09 04:24:18;;;;;;;21.33;8.83;;;1.90;88.40;;;;;;5053904;28;20075;-76
2021/01/09 04:26:44;;;;;;;15.83;8.87;;;1.90;88.20;;;;;;5054390;28;20056;-76
2021/01/09 04:29:09;;;;;;;18.63;8.93;;;1.80;88.20;;;;;;5053823;28;20053;-75
2021/01/09 04:31:35;;;;;;;19.53;9.10;;;1.80;88.40;;;;;;5054528;28;20428;-75
2021/01/09 04:34:01;;;;;;;18.57;8.17;;;1.80;88.30;;;;;;5052733;28;20037;-76
2021/01/09 04:36:26;;;;;;;21.07;9.17;;;1.70;88.40;;;;;;5053668;28;20021;-76
2021/01/09 04:38:52;;;;;;;16.17;8.43;;;1.70;88.60;;;;;;5053211;28;20473;-76
2021/01/09 04:41:21;;;;;;;16.27;8.43;;;1.60;88.60;;;;;;5054064;28;20025;-76
2021/01/09 04:43:48;;;;;;;18.93;8.73;;;1.60;88.70;;;;;;5054201;28;20466;-76
2021/01/09 04:46:16;;;;;;;20.70;8.50;;;1.60;88.90;;;;;;5053468;28;20113;-76
2021/01/09 04:48:42;;;;;;;16.17;8.20;;;1.50;89.00;;;;;;5052861;28;20051;-77
2021/01/09 04:51:08;;;;;;;22.47;9.30;;;1.60;89.00;;;;;;5052974;28;20553;-76
2021/01/09 04:53:37;;;;;;;18.50;9.07;;;1.60;89.00;;;;;;5054739;28;20029;-76
2021/01/09 04:56:03;;;;;;;18.37;8.23;;;1.60;88.90;;;;;;5053265;28;20044;-76
2021/01/09 04:58:31;;;;;;;16.73;7.63;;;1.60;88.90;;;;;;5053344;28;20107;-76
2021/01/09 05:00:57;;;;;;;17.43;8.53;;;1.60;89.20;;;;;;5052553;28;20059;-76
2021/01/09 05:03:22;;;;;;;16.43;8.07;;;1.60;89.00;;;;;;5053275;28;20029;-76
2021/01/09 05:05:49;;;;;;;19.93;8.73;;;1.70;89.00;;;;;;5053453;28;20043;-76
2021/01/09 05:08:14;;;;;;;21.17;9.60;;;1.60;89.00;;;;;;5052983;28;20025;-77
2021/01/09 05:10:40;;;;;;;21.23;9.00;;;1.60;89.10;;;;;;5053682;28;20047;-78
2021/01/09 05:13:06;;;;;;;18.43;9.20;;;1.60;89.10;;;;;;5053545;28;20462;-76
2021/01/09 05:15:38;;;;;;;19.43;8.50;;;1.60;89.10;;;;;;5051870;28;20040;-75
2021/01/09 05:18:05;;;;;;;19.97;8.73;;;1.60;89.00;;;;;;5053294;28;20025;-76
2021/01/09 05:20:31;;;;;;;22.23;9.70;;;1.70;89.20;;;;;;5052385;28;20052;-76
2021/01/09 05:22:59;;;;;;;20.20;8.73;;;1.70;89.10;;;;;;5052103;28;20025;-76
2021/01/09 05:25:26;;;;;;;18.77;8.43;;;1.60;88.80;;;;;;5053697;28;20059;-76
2021/01/09 05:27:53;;;;;;;20.10;9.27;;;1.60;89.00;;;;;;5051782;28;20021;-76
2021/01/09 05:30:20;;;;;;;20.70;9.50;;;1.60;89.30;;;;;;5053796;28;20029;-76
2021/01/09 05:32:45;;;;;;;18.77;8.57;;;1.50;89.30;;;;;;5051430;28;20021;-76
2021/01/09 05:35:15;;;;;;;20.03;8.67;;;1.50;89.70;;;;;;5053420;28;20116;-76
2021/01/09 05:37:40;;;;;;;20.10;9.00;;;1.50;89.80;;;;;;5052342;28;20032;-76
2021/01/09 05:40:07;;;;;;;19.37;9.27;;;1.40;89.80;;;;;;5052636;28;20466;-76
2021/01/09 05:42:34;;;;;;;19.17;9.20;;;1.40;89.80;;;;;;5051880;28;20474;-75
2021/01/09 05:45:00;;;;;;;19.40;9.13;;;1.40;89.90;;;;;;5052649;28;20021;-75
2021/01/09 05:47:28;;;;;;;16.50;8.77;;;1.40;89.90;;;;;;5052494;28;20047;-76
2021/01/09 05:49:55;;;;;;;18.37;8.73;;;1.40;89.80;;;;;;5051332;28;20025;-76
2021/01/09 05:52:28;;;;;;;20.13;9.37;;;1.30;89.70;;;;;;5052063;28;20473;-76
2021/01/09 05:54:55;;;;;;;19.83;9.03;;;1.30;89.90;;;;;;5052908;28;20420;-76
2021/01/09 05:57:25;;;;;;;20.27;8.50;;;1.20;89.90;;;;;;5051402;28;20032;-76
2021/01/09 05:59:52;;;;;;;19.13;8.37;;;1.20;89.90;;;;;;5051421;28;20025;-76
2021/01/09 06:02:18;;;;;;;17.30;8.43;;;1.20;89.90;;;;;;5051788;28;20036;-75
2021/01/09 06:04:44;;;;;;;19.43;8.57;;;1.20;89.80;;;;;;5051446;28;20028;-76
2021/01/09 06:07:19;;;;;;;18.13;8.40;;;1.30;89.60;;;;;;5051114;28;20120;-76
2021/01/09 06:09:56;;;;;;;17.93;8.17;;;1.30;89.40;;;;;;5051162;28;20025;-77
2021/01/09 06:12:22;;;;;;;19.23;8.77;;;1.30;89.30;;;;;;5051896;28;20083;-76
2021/01/09 06:14:50;;;;;;;16.70;7.87;;;1.20;89.30;;;;;;5052951;28;20536;-76
2021/01/09 06:17:20;;;;;;;19.50;9.17;;;1.20;89.10;;;;;;5051909;28;20446;-76
2021/01/09 06:19:46;;;;;;;20.17;8.67;;;1.20;89.20;;;;;;5051192;28;20032;-76
2021/01/09 06:22:12;;;;;;;20.93;9.37;;;1.20;89.20;;;;;;5051760;28;20033;-76
2021/01/09 06:24:39;;;;;;;20.77;9.33;;;1.20;89.20;;;;;;5051845;28;20029;-76
2021/01/09 06:27:09;;;;;;;21.23;9.60;;;1.20;89.10;;;;;;5051983;28;20029;-76
2021/01/09 06:29:39;;;;;;;21.07;8.97;;;1.20;89.60;;;;;;5051398;28;20021;-76
2021/01/09 06:32:08;;;;;;;18.87;8.60;;;1.10;89.20;;;;;;5052093;28;20191;-76
2021/01/09 06:34:39;;;;;;;21.47;9.30;;;1.10;89.30;;;;;;5051164;28;20487;-76
2021/01/09 06:37:05;;;;;;;20.70;9.23;;;1.00;89.30;;;;;;5051099;28;20064;-76
2021/01/09 06:39:36;;;;;;;20.67;8.80;;;1.00;89.30;;;;;;5051800;28;20029;-76
2021/01/09 06:42:05;;;;;;;18.58;8.65;;;1.00;89.30;;;;;;5052185;28;20378;-76
2021/01/09 06:44:31;;;;;;;18.43;8.83;;;1.00;89.50;;;;;;5051071;28;20041;-76
2021/01/09 06:46:57;;;;;;;17.33;7.90;;;1.00;89.50;;;;;;5056012;28;20076;-75
2021/01/09 06:49:27;;;;;;;21.03;8.93;;;1.00;89.50;;;;;;5055404;28;20025;-76
2021/01/09 06:52:03;;;;;;;18.20;8.53;;;1.00;89.70;;;;;;5054473;28;20059;-76
2021/01/09 06:54:38;;;;;;;19.53;8.23;;;1.00;90.20;;;;;;5054850;28;20035;-76
2021/01/09 06:57:17;;;;;;;21.50;9.10;;;0.90;89.70;;;;;;5054471;28;20116;-76
2021/01/09 06:59:45;;;;;;;15.97;7.80;;;0.90;89.80;;;;;;5055481;28;20385;-75
2021/01/09 07:02:16;;;;;;;17.47;8.13;;;0.90;89.90;;;;;;5055693;28;20517;-76
2021/01/09 07:04:54;;;;;;;15.52;7.32;;;0.80;89.80;;;;;;5055535;28;20382;-76
2021/01/09 07:07:31;;;;;;;16.30;7.63;;;0.70;90.10;;;;;;5055256;28;20254;-75
2021/01/09 07:10:07;;;;;;;17.97;7.60;;;0.70;90.10;;;;;;5056174;28;20025;-76
2021/01/09 07:12:33;;;;;;;16.40;7.57;;;0.70;90.10;;;;;;5055256;28;20063;-75
2021/01/09 07:15:12;;;;;;;20.83;7.80;;;0.70;90.10;;;;;;5055881;28;20029;-76
2021/01/09 07:17:40;;;;;;;17.07;7.73;;;0.70;90.00;;;;;;5056042;28;20025;-76
2021/01/09 07:20:08;;;;;;;15.77;7.43;;;0.70;90.00;;;;;;5053986;28;20035;-76
2021/01/09 07:22:45;;;;;;;18.03;7.93;;;0.80;89.90;;;;;;5054470;28;20044;-76
2021/01/09 07:25:11;;;;;;;16.10;7.70;;;0.80;89.50;;;;;;5055016;28;20250;-76
2021/01/09 07:27:42;;;;;;;18.23;8.17;;;0.80;89.40;;;;;;5055369;28;20025;-75
2021/01/09 07:30:12;;;;;;;18.90;8.02;;;0.80;89.20;;;;;;5053776;28;20385;-76
2021/01/09 07:32:44;;;;;;;18.47;8.13;;;0.80;88.80;;;;;;5054263;28;20045;-75
2021/01/09 07:35:10;;;;;;;16.93;8.20;;;0.80;88.90;;;;;;5053200;28;20048;-76
2021/01/09 07:37:41;;;;;;;15.23;7.07;;;0.80;88.60;;;;;;5053835;28;20029;-76
2021/01/09 07:40:16;;;;;;;17.67;8.27;;;0.70;88.90;;;;;;5052914;28;20079;-76
2021/01/09 07:42:42;;;;;;;16.40;7.67;;;0.70;89.00;;;;;;5055430;28;20037;-76
2021/01/09 07:45:15;;;;;;;16.90;7.57;;;0.70;88.90;;;;;;5053973;28;20028;-75
2021/01/09 07:47:42;;;;;;;15.93;7.27;;;0.60;89.00;;;;;;5054552;28;20033;-76
2021/01/09 07:50:10;;;;;;;16.80;7.57;;;0.60;89.20;;;;;;5055256;28;20027;-76
2021/01/09 07:52:37;;;;;;;15.60;7.67;;;0.50;89.20;;;;;;5054760;28;20044;-76
2021/01/09 07:55:04;;;;;;;15.10;7.00;;;0.50;89.60;;;;;;5053595;28;20021;-76
2021/01/09 07:57:30;;;;;;;17.33;7.87;;;0.50;89.80;;;;;;5055017;28;20039;-76
2021/01/09 08:00:00;;;;;;;16.50;7.50;;;0.50;89.80;;;;;;5054652;28;20021;-75
2021/01/09 08:02:27;;;;;;;17.70;8.10;;;0.50;89.80;;;;;;5055257;28;20024;-76
2021/01/09 08:05:09;;;;;;;16.97;7.80;;;0.40;89.90;;;;;;5054683;28;20029;-78
2021/01/09 08:07:36;;;;;;;20.10;9.00;;;0.50;90.00;;;;;;5055178;28;20036;-76
2021/01/09 08:10:21;;;;;;;20.97;8.67;;;0.50;90.00;;;;;;5053133;28;20083;-76
2021/01/09 08:12:52;;;;;;;18.87;8.23;;;0.50;90.00;;;;;;5052753;28;20033;-75
2021/01/09 08:15:18;;;;;;;14.52;6.05;;;0.40;89.90;;;;;;5054930;28;20036;-76
2021/01/09 08:17:44;;;;;;;16.80;7.50;;;0.30;90.10;;;;;;5053871;28;20033;-76
2021/01/09 08:20:11;;;;;;;18.00;7.77;;;0.30;90.20;;;;;;5053254;28;20021;-76
2021/01/09 08:22:47;;;;;;;22.20;8.70;;;0.20;90.30;;;;;;5054752;28;20040;-76
2021/01/09 08:25:13;;;;;;;18.40;7.33;;;0.20;90.40;;;;;;5054491;28;20028;-76
2021/01/09 08:27:50;;;;;;;16.10;8.17;;;0.20;90.50;;;;;;5054781;28;20059;-76
2021/01/09 08:30:17;;;;;;;18.17;7.90;;;0.20;90.60;;;;;;5053414;28;20399;-76
2021/01/09 08:32:44;;;;;;;17.70;7.73;;;0.20;90.70;;;;;;5054882;28;20044;-76
2021/01/09 08:35:11;;;;;;;16.87;8.03;;;0.20;90.80;;;;;;5054419;28;20053;-76
2021/01/09 08:37:37;;;;;;;19.27;8.23;;;0.20;90.90;;;;;;5052801;28;20025;-76
2021/01/09 08:40:18;;;;;;;15.47;7.47;;;0.30;90.80;;;;;;5052704;28;20025;-76
2021/01/09 08:42:57;;;;;;;20.70;8.67;;;0.30;90.80;;;;;;5053123;28;20386;-75
2021/01/09 08:45:49;;;;;;;19.63;8.07;;;0.40;90.80;;;;;;5053254;28;20489;-75
2021/01/09 08:48:26;;;;;;;18.93;8.60;;;0.40;90.80;;;;;;5052585;28;20033;-75
2021/01/09 08:50:59;;;;;;;19.10;8.43;;;0.40;91.00;;;;;;5052862;28;20063;-75
2021/01/09 08:53:27;;;;;;;18.50;8.60;;;0.40;91.10;;;;;;5053365;28;20129;-76
2021/01/09 08:56:01;;;;;;;17.63;8.23;;;0.50;91.10;;;;;;5053190;28;20048;-76
2021/01/09 08:58:29;;;;;;;21.90;9.33;;;0.50;91.00;;;;;;5053599;28;20059;-76
2021/01/09 09:00:56;;;;;;;22.17;9.60;;;0.50;91.10;;;;;;5052654;28;20385;-76
2021/01/09 09:03:23;;;;;;;20.87;9.03;;;0.60;91.10;;;;;;5054300;28;20021;-76
2021/01/09 09:05:50;;;;;;;21.47;9.63;;;0.70;91.20;;;;;;5054295;28;20021;-76
2021/01/09 09:08:17;;;;;;;21.80;9.83;;;0.70;91.30;;;;;;5051672;28;20397;-76
2021/01/09 09:10:45;;;;;;;21.87;9.23;;;0.80;91.20;;;;;;5053984;28;20021;-76
2021/01/09 09:13:22;;;;;;;23.87;10.27;;;0.90;91.10;;;;;;5052345;28;20064;-76
2021/01/09 09:15:49;;;;;;;24.33;10.17;;;0.90;91.10;;;;;;5054012;28;20051;-76
2021/01/09 09:18:16;;;;;;;23.47;10.03;;;1.00;91.10;;;;;;5052151;28;20470;-76
2021/01/09 09:20:51;;;;;;;23.63;10.00;;;1.10;90.90;;;;;;5052713;28;20116;-76
2021/01/09 09:23:26;;;;;;;26.03;10.57;;;1.20;90.70;;;;;;5052465;28;20036;-76
2021/01/09 09:26:07;;;;;;;22.07;10.63;;;1.30;90.60;;;;;;5052769;28;20028;-76
2021/01/09 09:28:42;;;;;;;25.20;10.53;;;1.40;90.30;;;;;;5052940;28;20028;-75
2021/01/09 09:31:27;;;;;;;24.97;10.97;;;1.40;90.30;;;;;;5052207;28;20063;-76
2021/01/09 09:34:03;;;;;;;24.50;11.30;;;1.50;90.20;;;;;;5052370;28;20047;-76
2021/01/09 09:36:31;;;;;;;25.43;11.03;;;1.50;90.00;;;;;;5053491;28;20029;-76
2021/01/09 09:38:57;;;;;;;25.53;11.20;;;1.60;90.10;;;;;;5052189;28;20021;-77
2021/01/09 09:41:23;;;;;;;31.03;12.03;;;1.70;89.90;;;;;;5053645;28;20025;-76
2021/01/09 09:43:59;;;;;;;27.03;11.53;;;1.80;89.60;;;;;;5052444;28;20164;-76
2021/01/09 09:46:25;;;;;;;26.63;12.17;;;1.90;89.40;;;;;;5053570;28;20024;-77
2021/01/09 09:48:52;;;;;;;27.67;11.63;;;1.90;89.20;;;;;;5052253;28;20427;-76
2021/01/09 09:51:17;;;;;;;25.07;11.50;;;1.90;88.80;;;;;;5050897;28;20130;-75
2021/01/09 09:53:53;;;;;;;24.97;11.13;;;2.00;88.70;;;;;;5052397;28;20079;-76
2021/01/09 09:56:19;;;;;;;26.30;11.33;;;2.10;88.10;;;;;;5051521;28;20025;-76
2021/01/09 09:58:46;;;;;;;25.37;11.23;;;2.20;87.40;;;;;;5053379;28;20031;-76
2021/01/09 10:01:22;;;;;;;24.50;10.30;;;2.20;88.10;;;;;;5051487;28;20080;-76
2021/01/09 10:03:51;;;;;;;29.67;11.90;;;2.20;87.00;;;;;;5053064;28;20490;-76
2021/01/09 10:06:17;;;;;;;25.00;11.37;;;2.30;86.80;;;;;;5051115;28;20374;-76
2021/01/09 10:08:43;;;;;;;26.07;11.90;;;2.30;86.80;;;;;;5052924;28;20029;-76
2021/01/09 10:11:09;;;;;;;27.70;11.57;;;2.30;86.60;;;;;;5051217;28;20557;-76
2021/01/09 10:13:35;;;;;;;24.83;11.73;;;2.30;86.00;;;;;;5051666;28;20035;-76
2021/01/09 10:16:02;;;;;;;26.63;11.47;;;2.30;86.10;;;;;;5051642;28;20071;-77
2021/01/09 10:18:29;;;;;;;24.47;10.80;;;2.20;86.10;;;;;;5051134;28;20029;-76
2021/01/09 10:20:56;;;;;;;26.27;11.73;;;2.20;86.50;;;;;;5052603;28;20115;-76
2021/01/09 10:23:23;;;;;;;27.77;12.37;;;2.30;87.20;;;;;;5050631;28;20060;-76
2021/01/09 10:25:49;;;;;;;25.07;10.83;;;2.30;86.60;;;;;;5052706;28;20018;-76
2021/01/09 10:28:15;;;;;;;22.40;10.77;;;2.30;86.30;;;;;;5051226;28;20519;-76
2021/01/09 10:30:40;;;;;;;26.00;11.07;;;2.40;86.10;;;;;;5051414;28;20025;-76
2021/01/09 10:33:07;;;;;;;23.37;10.97;;;2.40;86.50;;;;;;5051054;28;20029;-76
2021/01/09 10:35:33;;;;;;;25.17;11.43;;;2.30;86.00;;;;;;5051526;28;20064;-76
2021/01/09 10:37:59;;;;;;;29.57;11.73;;;2.40;86.10;;;;;;5051605;28;20063;-76
2021/01/09 10:40:25;;;;;;;25.50;11.00;;;2.40;85.80;;;;;;5051572;28;20021;-76
2021/01/09 10:42:51;;;;;;;28.70;11.83;;;2.50;86.10;;;;;;5050500;28;20433;-76
2021/01/09 10:45:17;;;;;;;26.20;12.00;;;2.60;85.80;;;;;;5050948;28;20381;-76
2021/01/09 10:47:43;;;;;;;28.67;11.80;;;2.70;85.20;;;;;;5051617;28;20029;-75
2021/01/09 10:50:10;;;;;;;28.20;12.53;;;2.70;85.20;;;;;;5051079;28;20120;-76
2021/01/09 10:52:36;;;;;;;24.60;11.23;;;2.80;84.80;;;;;;5052467;28;20037;-76
2021/01/09 10:55:03;;;;;;;30.30;12.00;;;2.70;84.50;;;;;;5050935;28;20033;-76
2021/01/09 10:57:29;;;;;;;25.70;12.60;;;2.80;84.50;;;;;;5052530;28;20025;-76
2021/01/09 10:59:54;;;;;;;26.43;12.67;;;2.80;84.50;;;;;;5051431;28;20393;-76
2021/01/09 11:02:20;;;;;;;26.50;12.10;;;2.80;84.30;;;;;;5051477;28;20298;-76
2021/01/09 11:04:45;;;;;;;25.03;11.70;;;2.80;84.10;;;;;;5051781;28;20422;-76
2021/01/09 11:07:11;;;;;;;27.33;11.80;;;2.90;84.30;;;;;;5052160;28;20108;-76
2021/01/09 11:09:37;;;;;;;29.10;12.20;;;2.90;83.70;;;;;;5052700;28;20021;-76
2021/01/09 11:12:03;;;;;;;27.90;11.87;;;2.90;83.50;;;;;;5051097;28;20043;-78
2021/01/09 11:14:29;;;;;;;24.63;10.87;;;2.80;84.50;;;;;;5050855;28;20032;-76
2021/01/09 11:16:56;;;;;;;25.33;11.47;;;2.90;83.80;;;;;;5051470;28;20025;-76
2021/01/09 11:19:22;;;;;;;24.87;11.37;;;2.90;83.30;;;;;;5050773;28;20034;-76
2021/01/09 11:21:47;;;;;;;25.63;10.80;;;2.80;83.60;;;;;;5051251;28;20496;-76
2021/01/09 11:24:13;;;;;;;22.70;10.67;;;2.80;83.60;;;;;;5052310;28;20033;-76
2021/01/09 11:26:39;;;;;;;24.67;12.00;;;2.70;84.10;;;;;;5052483;28;20458;-76
2021/01/09 11:29:05;;;;;;;27.20;11.80;;;2.70;84.60;;;;;;5050828;28;20410;-76
2021/01/09 11:31:30;;;;;;;26.20;11.70;;;2.70;84.90;;;;;;5052869;28;20094;-76
2021/01/09 11:33:56;;;;;;;24.83;11.50;;;2.70;85.00;;;;;;5054837;28;20045;-76
2021/01/09 11:36:22;;;;;;;26.93;11.17;;;2.90;84.90;;;;;;5054275;28;20485;-76
2021/01/09 11:38:48;;;;;;;24.03;11.83;;;2.90;84.60;;;;;;5054938;28;20056;-76
2021/01/09 11:41:15;;;;;;;24.57;10.97;;;3.00;86.50;;;;;;5054419;28;20060;-76
2021/01/09 11:43:42;;;;;;;24.47;10.80;;;2.80;84.10;;;;;;5054955;28;20119;-76
2021/01/09 11:46:08;;;;;;;23.20;11.23;;;2.90;83.80;;;;;;5054256;28;20029;-76
2021/01/09 11:48:34;;;;;;;24.40;11.20;;;2.90;83.90;;;;;;5054644;28;20029;-76
2021/01/09 11:51:00;;;;;;;23.77;11.33;;;3.00;83.50;;;;;;5055900;28;20033;-76
2021/01/09 11:53:26;;;;;;;27.23;12.00;;;3.00;83.60;;;;;;5054282;28;20151;-76
2021/01/09 11:55:52;;;;;;;23.17;10.83;;;3.00;83.80;;;;;;5054721;28;20035;-76
2021/01/09 11:58:17;;;;;;;23.40;11.07;;;3.00;83.60;;;;;;5054118;28;20025;-76
2021/01/09 12:00:44;;;;;;;24.47;10.50;;;3.00;83.80;;;;;;5054608;28;20025;-76
2021/01/09 12:03:10;;;;;;;23.83;10.60;;;3.10;84.40;;;;;;5055434;28;20481;-76
2021/01/09 12:05:35;;;;;;;20.07;10.20;;;3.00;82.70;;;;;;5054667;28;20021;-76
2021/01/09 12:08:02;;;;;;;19.07;9.60;;;3.00;82.90;;;;;;5055090;28;20029;-76
2021/01/09 12:10:31;;;;;;;21.73;10.67;;;3.10;82.00;;;;;;5054960;28;20144;-76
2021/01/09 12:12:57;;;;;;;20.27;9.67;;;3.30;82.50;;;;;;5055377;28;20033;-76
2021/01/09 12:15:23;;;;;;;19.57;9.57;;;3.40;81.40;;;;;;5054458;28;20060;-76
2021/01/09 12:17:49;;;;;;;19.03;9.53;;;3.40;81.60;;;;;;5055409;28;20032;-77
2021/01/09 12:20:15;;;;;;;20.37;10.13;;;3.30;81.50;;;;;;5053136;28;20037;-77
2021/01/09 12:22:40;;;;;;;22.17;9.97;;;3.20;81.40;;;;;;5054276;28;20039;-76
2021/01/09 12:25:07;;;;;;;21.87;9.33;;;3.10;81.50;;;;;;5055028;28;20067;-76
2021/01/09 12:27:33;;;;;;;18.93;9.00;;;3.10;81.90;;;;;;5054742;28;20025;-76
2021/01/09 12:29:59;;;;;;;19.03;9.17;;;3.20;81.00;;;;;;5055352;28;20032;-76
2021/01/09 12:32:24;;;;;;;18.53;8.67;;;3.30;81.10;;;;;;5053194;28;20478;-76
2021/01/09 12:34:51;;;;;;;19.60;9.93;;;3.60;80.00;;;;;;5087056;28;20076;-76
2021/01/09 12:37:16;;;;;;;20.57;9.63;;;3.80;78.50;;;;;;5054476;28;20055;-76
2021/01/09 12:39:42;;;;;;;15.73;8.57;;;4.10;77.90;;;;;;5053844;28;20033;-76
2021/01/09 12:42:11;;;;;;;17.40;8.87;;;4.30;76.50;;;;;;5053746;28;20037;-76
2021/01/09 12:44:37;;;;;;;18.77;8.47;;;4.40;75.70;;;;;;5053378;28;20057;-76
2021/01/09 12:47:03;;;;;;;17.97;8.67;;;4.40;75.30;;;;;;5053288;28;20488;-76
2021/01/09 12:49:29;;;;;;;16.70;8.03;;;4.50;75.80;;;;;;5052682;28;20025;-77